sensor_id;sensor_type;location;lat;lon;timestamp;temperature;humidity
44731;DHT22;30458;47.448;19.032;2022-10-22T00:02:26;13.10;90.90
44731;DHT22;30458;47.448;19.032;2022-10-22T00:12:27;13.20;91.00
44731;DHT22;30458;47.448;19.032;2022-10-22T00:22:28;13.20;91.00
44731;DHT22;30458;47.448;19.032;2022-10-22T00:32:31;13.20;91.00
44731;DHT22;30458;47.448;19.032;2022-10-22T00:42:32;13.20;91.00
44731;DHT22;30458;47.448;19.032;2022-10-22T00:52:32;13.30;90.90
44731;DHT22;30458;47.448;19.032;2022-10-22T01:02:36;13.30;91.00
44731;DHT22;30458;47.448;19.032;2022-10-22T01:13:15;13.30;90.90
44731;DHT22;30458;47.448;19.032;2022-10-22T01:33:30;13.30;91.10
44731;DHT22;30458;47.448;19.032;2022-10-22T01:43:35;13.20;91.20
44731;DHT22;30458;47.448;19.032;2022-10-22T02:04:00;13.30;91.30
44731;DHT22;30458;47.448;19.032;2022-10-22T02:14:04;13.40;91.00
44731;DHT22;30458;47.448;19.032;2022-10-22T02:24:06;13.40;92.00
44731;DHT22;30458;47.448;19.032;2022-10-22T02:34:10;13.40;91.70
44731;DHT22;30458;47.448;19.032;2022-10-22T02:44:13;13.20;92.10
44731;DHT22;30458;47.448;19.032;2022-10-22T02:54:14;13.20;92.10
44731;DHT22;30458;47.448;19.032;2022-10-22T03:04:14;13.20;92.40
44731;DHT22;30458;47.448;19.032;2022-10-22T03:14:17;13.20;92.90
44731;DHT22;30458;47.448;19.032;2022-10-22T03:24:22;13.00;93.10
44731;DHT22;30458;47.448;19.032;2022-10-22T03:34:25;13.00;93.10
44731;DHT22;30458;47.448;19.032;2022-10-22T03:44:29;12.90;92.90
44731;DHT22;30458;47.448;19.032;2022-10-22T03:54:29;12.90;92.90
44731;DHT22;30458;47.448;19.032;2022-10-22T04:04:30;12.90;93.50
44731;DHT22;30458;47.448;19.032;2022-10-22T04:14:31;12.70;93.70
44731;DHT22;30458;47.448;19.032;2022-10-22T04:24:34;12.60;94.30
44731;DHT22;30458;47.448;19.032;2022-10-22T04:34:35;12.50;94.20
44731;DHT22;30458;47.448;19.032;2022-10-22T04:44:38;12.50;94.40
44731;DHT22;30458;47.448;19.032;2022-10-22T04:54:39;12.40;94.20
44731;DHT22;30458;47.448;19.032;2022-10-22T05:04:47;12.10;94.70
44731;DHT22;30458;47.448;19.032;2022-10-22T05:14:47;12.20;95.00
44731;DHT22;30458;47.448;19.032;2022-10-22T05:24:48;12.20;94.80
44731;DHT22;30458;47.448;19.032;2022-10-22T05:34:51;12.40;94.30
44731;DHT22;30458;47.448;19.032;2022-10-22T05:44:54;12.30;94.50
44731;DHT22;30458;47.448;19.032;2022-10-22T05:54:55;12.50;94.20
44731;DHT22;30458;47.448;19.032;2022-10-22T06:04:58;12.70;94.00
44731;DHT22;30458;47.448;19.032;2022-10-22T06:15:01;12.90;93.90
44731;DHT22;30458;47.448;19.032;2022-10-22T06:25:05;13.20;94.00
44731;DHT22;30458;47.448;19.032;2022-10-22T06:35:07;13.50;93.90
44731;DHT22;30458;47.448;19.032;2022-10-22T06:45:09;14.00;93.60
44731;DHT22;30458;47.448;19.032;2022-10-22T06:55:10;15.40;92.00
44731;DHT22;30458;47.448;19.032;2022-10-22T07:05:15;16.60;90.00
44731;DHT22;30458;47.448;19.032;2022-10-22T07:15:16;17.10;85.80
44731;DHT22;30458;47.448;19.032;2022-10-22T07:25:16;16.60;85.90
44731;DHT22;30458;47.448;19.032;2022-10-22T07:35:17;15.80;88.30
44731;DHT22;30458;47.448;19.032;2022-10-22T07:45:18;16.50;87.50
44731;DHT22;30458;47.448;19.032;2022-10-22T07:55:21;20.00;81.30
44731;DHT22;30458;47.448;19.032;2022-10-22T08:05:21;24.00;72.40
44731;DHT22;30458;47.448;19.032;2022-10-22T08:15:28;26.10;66.40
44731;DHT22;30458;47.448;19.032;2022-10-22T08:25:29;26.60;63.40
44731;DHT22;30458;47.448;19.032;2022-10-22T08:35:30;25.60;63.40
44731;DHT22;30458;47.448;19.032;2022-10-22T08:46:01;24.20;66.40
44731;DHT22;30458;47.448;19.032;2022-10-22T08:56:06;21.30;71.60
44731;DHT22;30458;47.448;19.032;2022-10-22T09:06:15;19.40;76.50
44731;DHT22;30458;47.448;19.032;2022-10-22T09:27:06;17.20;82.10
44731;DHT22;30458;47.448;19.032;2022-10-22T09:37:15;16.80;83.80
44731;DHT22;30458;47.448;19.032;2022-10-22T09:57:35;16.70;84.80
44731;DHT22;30458;47.448;19.032;2022-10-22T10:07:36;16.70;85.30
44731;DHT22;30458;47.448;19.032;2022-10-22T10:39:02;16.50;87.50
44731;DHT22;30458;47.448;19.032;2022-10-22T10:49:18;16.40;88.40
44731;DHT22;30458;47.448;19.032;2022-10-22T11:09:53;16.50;89.30
44731;DHT22;30458;47.448;19.032;2022-10-22T11:20:21;16.60;90.40
44731;DHT22;30458;47.448;19.032;2022-10-22T11:30:27;16.70;90.40
44731;DHT22;30458;47.448;19.032;2022-10-22T11:40:42;16.70;90.20
44731;DHT22;30458;47.448;19.032;2022-10-22T12:00:53;17.00;90.40
44731;DHT22;30458;47.448;19.032;2022-10-22T12:21:15;17.40;90.70
44731;DHT22;30458;47.448;19.032;2022-10-22T12:31:16;17.50;90.30
44731;DHT22;30458;47.448;19.032;2022-10-22T12:41:17;17.50;90.70
44731;DHT22;30458;47.448;19.032;2022-10-22T12:51:19;17.40;90.70
44731;DHT22;30458;47.448;19.032;2022-10-22T13:01:28;17.30;91.50
44731;DHT22;30458;47.448;19.032;2022-10-22T13:11:47;17.20;92.30
44731;DHT22;30458;47.448;19.032;2022-10-22T13:21:48;17.10;92.70
44731;DHT22;30458;47.448;19.032;2022-10-22T13:31:51;17.10;92.80
44731;DHT22;30458;47.448;19.032;2022-10-22T13:41:54;17.10;93.20
44731;DHT22;30458;47.448;19.032;2022-10-22T13:51:58;17.10;93.60
44731;DHT22;30458;47.448;19.032;2022-10-22T14:02:08;17.00;93.80
44731;DHT22;30458;47.448;19.032;2022-10-22T14:12:13;17.00;94.20
44731;DHT22;30458;47.448;19.032;2022-10-22T14:22:18;17.00;94.60
44731;DHT22;30458;47.448;19.032;2022-10-22T14:32:21;17.00;94.20
44731;DHT22;30458;47.448;19.032;2022-10-22T14:42:22;16.80;95.40
44731;DHT22;30458;47.448;19.032;2022-10-22T14:52:22;16.80;95.50
44731;DHT22;30458;47.448;19.032;2022-10-22T15:02:23;16.60;95.70
44731;DHT22;30458;47.448;19.032;2022-10-22T15:12:26;16.40;96.10
44731;DHT22;30458;47.448;19.032;2022-10-22T15:22:27;16.30;96.30
44731;DHT22;30458;47.448;19.032;2022-10-22T15:32:28;16.20;96.50
44731;DHT22;30458;47.448;19.032;2022-10-22T15:42:28;16.30;96.60
44731;DHT22;30458;47.448;19.032;2022-10-22T15:52:30;16.40;96.60
44731;DHT22;30458;47.448;19.032;2022-10-22T16:02:31;16.20;98.10
44731;DHT22;30458;47.448;19.032;2022-10-22T16:12:32;16.10;99.40
44731;DHT22;30458;47.448;19.032;2022-10-22T16:22:35;15.90;99.90
44731;DHT22;30458;47.448;19.032;2022-10-22T16:32:36;15.80;99.90
44731;DHT22;30458;47.448;19.032;2022-10-22T16:42:36;15.70;99.90
44731;DHT22;30458;47.448;19.032;2022-10-22T16:52:40;15.40;99.90
44731;DHT22;30458;47.448;19.032;2022-10-22T17:02:43;15.40;99.90
44731;DHT22;30458;47.448;19.032;2022-10-22T17:12:45;15.00;99.90
44731;DHT22;30458;47.448;19.032;2022-10-22T17:22:48;15.00;99.90
44731;DHT22;30458;47.448;19.032;2022-10-22T17:32:51;14.90;99.90
44731;DHT22;30458;47.448;19.032;2022-10-22T17:42:52;14.60;99.90
44731;DHT22;30458;47.448;19.032;2022-10-22T17:52:53;14.50;99.90
44731;DHT22;30458;47.448;19.032;2022-10-22T18:02:54;14.40;99.90
44731;DHT22;30458;47.448;19.032;2022-10-22T18:12:55;14.30;99.90
44731;DHT22;30458;47.448;19.032;2022-10-22T18:22:56;14.10;99.90
44731;DHT22;30458;47.448;19.032;2022-10-22T18:32:56;14.00;99.90
44731;DHT22;30458;47.448;19.032;2022-10-22T18:43:00;13.90;99.90
44731;DHT22;30458;47.448;19.032;2022-10-22T18:53:03;13.80;99.90
44731;DHT22;30458;47.448;19.032;2022-10-22T19:03:06;13.70;99.90
44731;DHT22;30458;47.448;19.032;2022-10-22T19:13:07;13.90;99.90
44731;DHT22;30458;47.448;19.032;2022-10-22T19:23:10;13.90;99.90
44731;DHT22;30458;47.448;19.032;2022-10-22T19:33:10;14.10;99.90
44731;DHT22;30458;47.448;19.032;2022-10-22T19:43:11;13.80;99.90
44731;DHT22;30458;47.448;19.032;2022-10-22T19:53:14;13.90;99.90
44731;DHT22;30458;47.448;19.032;2022-10-22T20:03:18;13.90;99.90
44731;DHT22;30458;47.448;19.032;2022-10-22T20:13:19;13.90;99.90
44731;DHT22;30458;47.448;19.032;2022-10-22T20:23:23;13.80;99.90
44731;DHT22;30458;47.448;19.032;2022-10-22T20:33:26;13.70;99.90
44731;DHT22;30458;47.448;19.032;2022-10-22T20:43:27;13.80;99.90
44731;DHT22;30458;47.448;19.032;2022-10-22T20:53:27;13.90;99.90
44731;DHT22;30458;47.448;19.032;2022-10-22T21:03:28;14.00;99.90
44731;DHT22;30458;47.448;19.032;2022-10-22T21:13:33;13.90;99.90
44731;DHT22;30458;47.448;19.032;2022-10-22T21:23:35;13.70;99.90
44731;DHT22;30458;47.448;19.032;2022-10-22T21:33:37;13.40;99.90
44731;DHT22;30458;47.448;19.032;2022-10-22T21:43:39;13.30;99.90
44731;DHT22;30458;47.448;19.032;2022-10-22T21:53:41;13.30;99.90
44731;DHT22;30458;47.448;19.032;2022-10-22T22:03:44;13.20;99.90
44731;DHT22;30458;47.448;19.032;2022-10-22T22:13:46;13.10;99.90
44731;DHT22;30458;47.448;19.032;2022-10-22T22:23:49;13.20;99.90
44731;DHT22;30458;47.448;19.032;2022-10-22T22:33:56;13.20;99.90
44731;DHT22;30458;47.448;19.032;2022-10-22T22:43:57;13.30;99.90
44731;DHT22;30458;47.448;19.032;2022-10-22T22:53:58;13.40;99.90
44731;DHT22;30458;47.448;19.032;2022-10-22T23:04:04;13.50;99.90
44731;DHT22;30458;47.448;19.032;2022-10-22T23:14:06;13.60;99.90
44731;DHT22;30458;47.448;19.032;2022-10-22T23:24:09;13.60;99.90
44731;DHT22;30458;47.448;19.032;2022-10-22T23:34:17;13.40;99.90
44731;DHT22;30458;47.448;19.032;2022-10-22T23:44:22;13.40;99.90
44731;DHT22;30458;47.448;19.032;2022-10-22T23:54:22;13.50;99.90
